الصفحة الرئيسية
METAR-TAF:

METAR-TAF

مطار :

الخرطوم, السودان

مطار الخرطوم الدولي

دائرة عرض: 15-36N, خط طول: 032-33E, ارتفاع: 382 متر

مراقبة الطقس الحالي

تاريخ ووقت الإصدار 17 دقيقة قبل الساعة 11:00UTC
ريح 9 عقدة من الشمال
درجة الحرارة 30°درجة مئوية
الرطوبة 24%
ضغط 1012 hPa
الرؤية 10 كم أو أكثر
الغيوم لا تقل 1500 م ولا وجود لمزنة ركامية السحاب الأسود

METAR: HSSS 171100Z 01009KT CAVOK 30/07 Q1012 NOSIG

زمن: 14:17 (11:17 UTC)

توقعات

تاريخ ووقت الإصدار 6ساعات و 17 دقيقة قبل الساعة 05:00UTC
التوقعات صالحة من17 الساعة 06 UTC إلى 18 الساعة 12 UTC
ريح 8 عقدة من الشمال تتزايد حتى 18 عقدة
الرؤية 10 كم أو أكثر
الغيوم لا تقل 1500 م ولا وجود لمزنة ركامية السحاب الأسود
مؤقت
من 17 الساعة 06 UTC إلى 17 الساعة 09 UTC
الرؤية: 6000 متر

TAF: HSSS 170500Z 1706/1812 35008G18KT CAVOK TEMPO 1706/1709 6000

أرصاد الطقس والتوقعات من أكثر من 4000 مطار (تقارير الطقس للمطار METAR والتنبؤ بالطقس بالمطارTAF).

المحطات المتاحة هي النقط الصفراء والحمراء على الخريطة.

حرك المؤشر فوق النقطة لمعرفة اسم المحطة.

ثم انقر لمعرفة أرصاد وتوقعات الطقس.

لتغيير الخارطة: اضغط على الأزرار الخضراء مع رمز الصليب الأسود للتكبير. على الزر الأخضر مع شرطة للتصغير، أو على الأسهم الخضراء للخرائط المجاورة.


METAR-TAF: